Terminal Aerodrome Forecast
Issued by NWS Blacksburg, VA

Home | Current Version | Previous Version | Text Only | Print | Product List | Glossary On
Versions: 1 2 3 4 5 6 7 8 9 10 11 12 13 14 15 16 17 18 19 20 21 22 23 24 25 26 27 28 29 30 31 32 33 34 35 36 37 38 39 40
000
FTUS41 KRNK 281722
TAFBLF
TAF
KBLF 281722Z 2818/2918 30010G20KT P6SM VCSH SCT025 BKN040
     FM282300 30008KT P6SM BKN025
     FM290600 29004KT 5SM BR BKN015
     FM291400 28006KT P6SM SCT015 BKN025
     FM291600 29009KT P6SM SCT025 BKN040=

USA.gov is the U.S. government's official web portal to all federal, state and local government web resources and services.